sensor_id;sensor_type;location;lat;lon;timestamp;P1;durP1;ratioP1;P2;durP2;ratioP2
13487;SDS011;6816;48.506;9.050;2023-03-11T00:00:45;1.13;;;0.40;;
13487;SDS011;6816;48.506;9.050;2023-03-11T00:03:47;0.43;;;0.40;;
13487;SDS011;6816;48.506;9.050;2023-03-11T00:06:48;0.27;;;0.20;;
13487;SDS011;6816;48.506;9.050;2023-03-11T00:09:49;0.40;;;0.30;;
13487;SDS011;6816;48.506;9.050;2023-03-11T00:12:49;0.27;;;0.27;;
13487;SDS011;6816;48.506;9.050;2023-03-11T00:15:51;0.47;;;0.40;;
13487;SDS011;6816;48.506;9.050;2023-03-11T00:18:56;0.30;;;0.30;;
13487;SDS011;6816;48.506;9.050;2023-03-11T00:21:57;0.73;;;0.30;;
13487;SDS011;6816;48.506;9.050;2023-03-11T00:24:58;1.30;;;0.40;;
13487;SDS011;6816;48.506;9.050;2023-03-11T00:27:59;0.40;;;0.40;;
13487;SDS011;6816;48.506;9.050;2023-03-11T00:31:00;0.40;;;0.40;;
13487;SDS011;6816;48.506;9.050;2023-03-11T00:34:01;0.57;;;0.50;;
13487;SDS011;6816;48.506;9.050;2023-03-11T00:37:01;0.70;;;0.40;;
13487;SDS011;6816;48.506;9.050;2023-03-11T00:40:02;0.50;;;0.43;;
13487;SDS011;6816;48.506;9.050;2023-03-11T00:43:07;0.80;;;0.40;;
13487;SDS011;6816;48.506;9.050;2023-03-11T00:46:08;1.07;;;0.60;;
13487;SDS011;6816;48.506;9.050;2023-03-11T00:49:09;0.60;;;0.40;;
13487;SDS011;6816;48.506;9.050;2023-03-11T00:52:10;0.77;;;0.50;;
13487;SDS011;6816;48.506;9.050;2023-03-11T00:55:11;0.90;;;0.50;;
13487;SDS011;6816;48.506;9.050;2023-03-11T00:58:14;0.40;;;0.33;;
13487;SDS011;6816;48.506;9.050;2023-03-11T01:01:16;1.17;;;0.67;;
13487;SDS011;6816;48.506;9.050;2023-03-11T01:04:18;0.57;;;0.53;;
13487;SDS011;6816;48.506;9.050;2023-03-11T01:07:19;1.10;;;0.53;;
13487;SDS011;6816;48.506;9.050;2023-03-11T01:10:19;1.00;;;0.70;;
13487;SDS011;6816;48.506;9.050;2023-03-11T01:13:20;0.80;;;0.70;;
13487;SDS011;6816;48.506;9.050;2023-03-11T01:16:20;0.60;;;0.60;;
13487;SDS011;6816;48.506;9.050;2023-03-11T01:19:21;0.70;;;0.60;;
13487;SDS011;6816;48.506;9.050;2023-03-11T01:22:22;0.70;;;0.57;;
13487;SDS011;6816;48.506;9.050;2023-03-11T01:25:23;0.50;;;0.50;;
13487;SDS011;6816;48.506;9.050;2023-03-11T01:28:24;0.60;;;0.50;;
13487;SDS011;6816;48.506;9.050;2023-03-11T01:31:25;0.87;;;0.63;;
13487;SDS011;6816;48.506;9.050;2023-03-11T01:34:25;0.83;;;0.70;;
13487;SDS011;6816;48.506;9.050;2023-03-11T01:37:26;1.10;;;0.60;;
13487;SDS011;6816;48.506;9.050;2023-03-11T01:43:39;1.37;;;0.60;;
13487;SDS011;6816;48.506;9.050;2023-03-11T01:49:57;0.50;;;0.50;;
13487;SDS011;6816;48.506;9.050;2023-03-11T01:52:58;0.80;;;0.67;;
13487;SDS011;6816;48.506;9.050;2023-03-11T01:56:00;1.00;;;0.60;;
13487;SDS011;6816;48.506;9.050;2023-03-11T01:59:02;1.00;;;0.57;;
13487;SDS011;6816;48.506;9.050;2023-03-11T02:02:22;0.73;;;0.60;;
13487;SDS011;6816;48.506;9.050;2023-03-11T02:05:27;0.63;;;0.63;;
13487;SDS011;6816;48.506;9.050;2023-03-11T02:08:28;1.20;;;0.73;;
13487;SDS011;6816;48.506;9.050;2023-03-11T02:11:33;0.80;;;0.70;;
13487;SDS011;6816;48.506;9.050;2023-03-11T02:14:33;0.83;;;0.80;;
13487;SDS011;6816;48.506;9.050;2023-03-11T02:17:36;1.10;;;0.80;;
13487;SDS011;6816;48.506;9.050;2023-03-11T02:20:44;0.50;;;0.50;;
13487;SDS011;6816;48.506;9.050;2023-03-11T02:24:14;1.30;;;0.80;;
13487;SDS011;6816;48.506;9.050;2023-03-11T02:27:20;1.30;;;0.90;;
13487;SDS011;6816;48.506;9.050;2023-03-11T02:30:22;0.77;;;0.70;;
13487;SDS011;6816;48.506;9.050;2023-03-11T02:33:27;1.60;;;0.93;;
13487;SDS011;6816;48.506;9.050;2023-03-11T02:36:33;1.00;;;0.90;;
13487;SDS011;6816;48.506;9.050;2023-03-11T02:39:39;1.80;;;1.00;;
13487;SDS011;6816;48.506;9.050;2023-03-11T02:42:45;1.03;;;0.80;;
13487;SDS011;6816;48.506;9.050;2023-03-11T02:45:46;0.77;;;0.67;;
13487;SDS011;6816;48.506;9.050;2023-03-11T02:48:48;0.67;;;0.67;;
13487;SDS011;6816;48.506;9.050;2023-03-11T02:51:50;0.90;;;0.80;;
13487;SDS011;6816;48.506;9.050;2023-03-11T02:54:51;0.80;;;0.50;;
13487;SDS011;6816;48.506;9.050;2023-03-11T02:57:51;0.70;;;0.70;;
13487;SDS011;6816;48.506;9.050;2023-03-11T03:00:52;1.00;;;0.60;;
13487;SDS011;6816;48.506;9.050;2023-03-11T03:03:53;0.90;;;0.77;;
13487;SDS011;6816;48.506;9.050;2023-03-11T03:06:53;1.00;;;0.80;;
13487;SDS011;6816;48.506;9.050;2023-03-11T03:09:54;2.13;;;0.70;;
13487;SDS011;6816;48.506;9.050;2023-03-11T03:12:55;0.50;;;0.50;;
13487;SDS011;6816;48.506;9.050;2023-03-11T03:15:55;0.90;;;0.60;;
13487;SDS011;6816;48.506;9.050;2023-03-11T03:18:57;1.20;;;0.70;;
13487;SDS011;6816;48.506;9.050;2023-03-11T03:21:57;1.43;;;0.70;;
13487;SDS011;6816;48.506;9.050;2023-03-11T03:24:58;0.77;;;0.60;;
13487;SDS011;6816;48.506;9.050;2023-03-11T03:27:58;0.47;;;0.47;;
13487;SDS011;6816;48.506;9.050;2023-03-11T03:31:03;1.20;;;0.70;;
13487;SDS011;6816;48.506;9.050;2023-03-11T03:34:04;2.87;;;0.90;;
13487;SDS011;6816;48.506;9.050;2023-03-11T03:37:05;0.63;;;0.63;;
13487;SDS011;6816;48.506;9.050;2023-03-11T03:40:06;0.83;;;0.63;;
13487;SDS011;6816;48.506;9.050;2023-03-11T03:43:07;1.67;;;0.70;;
13487;SDS011;6816;48.506;9.050;2023-03-11T03:46:08;1.33;;;0.60;;
13487;SDS011;6816;48.506;9.050;2023-03-11T03:49:08;0.87;;;0.70;;
13487;SDS011;6816;48.506;9.050;2023-03-11T03:52:09;1.17;;;0.80;;
13487;SDS011;6816;48.506;9.050;2023-03-11T03:55:10;1.47;;;0.70;;
13487;SDS011;6816;48.506;9.050;2023-03-11T03:58:11;1.33;;;0.60;;
13487;SDS011;6816;48.506;9.050;2023-03-11T04:01:12;1.07;;;0.70;;
13487;SDS011;6816;48.506;9.050;2023-03-11T04:04:12;0.60;;;0.60;;
13487;SDS011;6816;48.506;9.050;2023-03-11T04:07:13;1.90;;;0.70;;
13487;SDS011;6816;48.506;9.050;2023-03-11T04:10:14;0.70;;;0.60;;
13487;SDS011;6816;48.506;9.050;2023-03-11T04:13:14;1.27;;;0.67;;
13487;SDS011;6816;48.506;9.050;2023-03-11T04:16:16;1.17;;;0.60;;
13487;SDS011;6816;48.506;9.050;2023-03-11T04:19:19;1.07;;;0.60;;
13487;SDS011;6816;48.506;9.050;2023-03-11T04:22:20;2.60;;;0.60;;
13487;SDS011;6816;48.506;9.050;2023-03-11T04:25:20;2.20;;;0.60;;
13487;SDS011;6816;48.506;9.050;2023-03-11T04:28:21;0.83;;;0.47;;
13487;SDS011;6816;48.506;9.050;2023-03-11T04:31:22;1.00;;;0.60;;
13487;SDS011;6816;48.506;9.050;2023-03-11T04:34:22;0.97;;;0.60;;
13487;SDS011;6816;48.506;9.050;2023-03-11T04:37:26;0.70;;;0.40;;
13487;SDS011;6816;48.506;9.050;2023-03-11T04:40:27;0.73;;;0.50;;
13487;SDS011;6816;48.506;9.050;2023-03-11T04:43:28;0.80;;;0.60;;
13487;SDS011;6816;48.506;9.050;2023-03-11T04:46:29;0.50;;;0.50;;
13487;SDS011;6816;48.506;9.050;2023-03-11T04:49:29;0.60;;;0.60;;
13487;SDS011;6816;48.506;9.050;2023-03-11T04:52:30;2.93;;;0.60;;
13487;SDS011;6816;48.506;9.050;2023-03-11T04:55:30;0.60;;;0.50;;
13487;SDS011;6816;48.506;9.050;2023-03-11T04:58:32;1.10;;;0.50;;
13487;SDS011;6816;48.506;9.050;2023-03-11T05:01:33;1.40;;;0.60;;
13487;SDS011;6816;48.506;9.050;2023-03-11T05:04:33;1.20;;;0.60;;
13487;SDS011;6816;48.506;9.050;2023-03-11T05:07:34;0.70;;;0.60;;
13487;SDS011;6816;48.506;9.050;2023-03-11T05:10:36;1.13;;;0.90;;
13487;SDS011;6816;48.506;9.050;2023-03-11T05:13:39;2.47;;;0.60;;
13487;SDS011;6816;48.506;9.050;2023-03-11T05:16:40;1.97;;;0.70;;
13487;SDS011;6816;48.506;9.050;2023-03-11T05:19:40;0.30;;;0.30;;
13487;SDS011;6816;48.506;9.050;2023-03-11T05:22:41;1.20;;;0.70;;
13487;SDS011;6816;48.506;9.050;2023-03-11T05:25:41;0.60;;;0.50;;
13487;SDS011;6816;48.506;9.050;2023-03-11T05:28:42;1.13;;;0.80;;
13487;SDS011;6816;48.506;9.050;2023-03-11T05:31:43;0.87;;;0.57;;
13487;SDS011;6816;48.506;9.050;2023-03-11T05:34:44;1.63;;;0.87;;
13487;SDS011;6816;48.506;9.050;2023-03-11T05:37:45;0.60;;;0.50;;
13487;SDS011;6816;48.506;9.050;2023-03-11T05:40:48;1.50;;;0.80;;
13487;SDS011;6816;48.506;9.050;2023-03-11T05:43:49;0.60;;;0.60;;
13487;SDS011;6816;48.506;9.050;2023-03-11T05:46:49;0.83;;;0.53;;
13487;SDS011;6816;48.506;9.050;2023-03-11T05:49:50;0.80;;;0.80;;
13487;SDS011;6816;48.506;9.050;2023-03-11T05:52:50;1.73;;;0.70;;
13487;SDS011;6816;48.506;9.050;2023-03-11T05:55:58;1.23;;;0.73;;
13487;SDS011;6816;48.506;9.050;2023-03-11T05:58:59;1.07;;;0.70;;
13487;SDS011;6816;48.506;9.050;2023-03-11T06:02:00;1.20;;;0.60;;
13487;SDS011;6816;48.506;9.050;2023-03-11T06:05:01;1.13;;;0.87;;
13487;SDS011;6816;48.506;9.050;2023-03-11T06:08:01;1.03;;;0.93;;
13487;SDS011;6816;48.506;9.050;2023-03-11T06:11:03;1.47;;;0.87;;
13487;SDS011;6816;48.506;9.050;2023-03-11T06:14:10;1.43;;;0.97;;
13487;SDS011;6816;48.506;9.050;2023-03-11T06:17:12;1.10;;;0.87;;
13487;SDS011;6816;48.506;9.050;2023-03-11T06:20:13;1.17;;;1.00;;
13487;SDS011;6816;48.506;9.050;2023-03-11T06:23:13;1.90;;;0.80;;
13487;SDS011;6816;48.506;9.050;2023-03-11T06:26:16;1.17;;;1.07;;
13487;SDS011;6816;48.506;9.050;2023-03-11T06:29:19;1.47;;;1.30;;
13487;SDS011;6816;48.506;9.050;2023-03-11T06:32:23;3.17;;;1.53;;
13487;SDS011;6816;48.506;9.050;2023-03-11T06:35:23;3.17;;;2.23;;
13487;SDS011;6816;48.506;9.050;2023-03-11T06:38:24;5.33;;;2.87;;
13487;SDS011;6816;48.506;9.050;2023-03-11T06:41:25;4.87;;;2.57;;
13487;SDS011;6816;48.506;9.050;2023-03-11T06:44:26;4.10;;;2.40;;
13487;SDS011;6816;48.506;9.050;2023-03-11T06:47:26;3.03;;;1.70;;
13487;SDS011;6816;48.506;9.050;2023-03-11T06:50:27;2.80;;;2.03;;
13487;SDS011;6816;48.506;9.050;2023-03-11T06:53:28;2.13;;;1.43;;
13487;SDS011;6816;48.506;9.050;2023-03-11T06:56:29;1.50;;;1.37;;
13487;SDS011;6816;48.506;9.050;2023-03-11T06:59:29;2.80;;;1.10;;
13487;SDS011;6816;48.506;9.050;2023-03-11T07:02:30;2.47;;;1.17;;
13487;SDS011;6816;48.506;9.050;2023-03-11T07:05:31;2.40;;;1.40;;
13487;SDS011;6816;48.506;9.050;2023-03-11T07:08:31;2.57;;;1.10;;
13487;SDS011;6816;48.506;9.050;2023-03-11T07:11:32;2.10;;;1.27;;
13487;SDS011;6816;48.506;9.050;2023-03-11T07:14:32;2.83;;;1.17;;
13487;SDS011;6816;48.506;9.050;2023-03-11T07:17:33;1.93;;;1.40;;
13487;SDS011;6816;48.506;9.050;2023-03-11T07:20:34;1.93;;;1.50;;
13487;SDS011;6816;48.506;9.050;2023-03-11T07:23:35;1.93;;;1.50;;
13487;SDS011;6816;48.506;9.050;2023-03-11T07:26:36;3.13;;;1.30;;
13487;SDS011;6816;48.506;9.050;2023-03-11T07:29:36;2.07;;;1.20;;
13487;SDS011;6816;48.506;9.050;2023-03-11T07:32:37;1.83;;;1.17;;
13487;SDS011;6816;48.506;9.050;2023-03-11T07:35:38;3.00;;;1.10;;
13487;SDS011;6816;48.506;9.050;2023-03-11T07:38:38;1.23;;;1.13;;
13487;SDS011;6816;48.506;9.050;2023-03-11T07:41:39;1.10;;;0.93;;
13487;SDS011;6816;48.506;9.050;2023-03-11T07:44:40;3.10;;;1.20;;
13487;SDS011;6816;48.506;9.050;2023-03-11T07:47:40;1.43;;;1.00;;
13487;SDS011;6816;48.506;9.050;2023-03-11T07:50:41;3.07;;;1.30;;
13487;SDS011;6816;48.506;9.050;2023-03-11T07:53:42;2.70;;;0.90;;
13487;SDS011;6816;48.506;9.050;2023-03-11T07:56:43;3.23;;;0.90;;
13487;SDS011;6816;48.506;9.050;2023-03-11T07:59:44;1.40;;;0.70;;
13487;SDS011;6816;48.506;9.050;2023-03-11T08:02:44;1.83;;;0.73;;
13487;SDS011;6816;48.506;9.050;2023-03-11T08:05:45;1.83;;;0.63;;
13487;SDS011;6816;48.506;9.050;2023-03-11T08:08:46;1.73;;;0.67;;
13487;SDS011;6816;48.506;9.050;2023-03-11T08:11:48;2.20;;;0.80;;
13487;SDS011;6816;48.506;9.050;2023-03-11T08:14:49;2.27;;;0.90;;
13487;SDS011;6816;48.506;9.050;2023-03-11T08:17:49;2.23;;;0.60;;
13487;SDS011;6816;48.506;9.050;2023-03-11T08:20:50;2.40;;;0.50;;
13487;SDS011;6816;48.506;9.050;2023-03-11T08:23:51;2.30;;;0.73;;
13487;SDS011;6816;48.506;9.050;2023-03-11T08:26:52;1.20;;;0.70;;
13487;SDS011;6816;48.506;9.050;2023-03-11T08:29:54;1.27;;;0.73;;
13487;SDS011;6816;48.506;9.050;2023-03-11T08:32:54;1.90;;;0.70;;
13487;SDS011;6816;48.506;9.050;2023-03-11T08:35:55;2.90;;;0.90;;
13487;SDS011;6816;48.506;9.050;2023-03-11T08:38:56;2.57;;;0.70;;
13487;SDS011;6816;48.506;9.050;2023-03-11T08:41:57;1.50;;;0.83;;
13487;SDS011;6816;48.506;9.050;2023-03-11T08:44:58;1.40;;;0.50;;
13487;SDS011;6816;48.506;9.050;2023-03-11T08:47:59;1.97;;;0.80;;
13487;SDS011;6816;48.506;9.050;2023-03-11T08:51:00;2.47;;;0.80;;
13487;SDS011;6816;48.506;9.050;2023-03-11T08:54:10;1.47;;;0.70;;
13487;SDS011;6816;48.506;9.050;2023-03-11T08:57:12;0.43;;;0.43;;
13487;SDS011;6816;48.506;9.050;2023-03-11T09:00:13;2.23;;;0.80;;
13487;SDS011;6816;48.506;9.050;2023-03-11T09:03:14;3.30;;;0.80;;
13487;SDS011;6816;48.506;9.050;2023-03-11T09:06:15;1.63;;;0.73;;
13487;SDS011;6816;48.506;9.050;2023-03-11T09:09:17;2.43;;;0.80;;
13487;SDS011;6816;48.506;9.050;2023-03-11T09:12:19;2.20;;;0.70;;
13487;SDS011;6816;48.506;9.050;2023-03-11T09:15:20;2.00;;;0.70;;
13487;SDS011;6816;48.506;9.050;2023-03-11T09:18:21;3.60;;;0.77;;
13487;SDS011;6816;48.506;9.050;2023-03-11T09:21:21;1.90;;;0.90;;
13487;SDS011;6816;48.506;9.050;2023-03-11T09:24:22;1.83;;;1.23;;
13487;SDS011;6816;48.506;9.050;2023-03-11T09:27:23;2.17;;;1.00;;
13487;SDS011;6816;48.506;9.050;2023-03-11T09:30:23;2.10;;;0.80;;
13487;SDS011;6816;48.506;9.050;2023-03-11T09:33:24;3.87;;;0.90;;
13487;SDS011;6816;48.506;9.050;2023-03-11T09:36:25;1.57;;;0.87;;
13487;SDS011;6816;48.506;9.050;2023-03-11T09:39:25;3.27;;;0.80;;
13487;SDS011;6816;48.506;9.050;2023-03-11T09:45:42;4.47;;;0.90;;
13487;SDS011;6816;48.506;9.050;2023-03-11T09:48:57;1.17;;;0.73;;
13487;SDS011;6816;48.506;9.050;2023-03-11T09:52:19;1.50;;;0.80;;
13487;SDS011;6816;48.506;9.050;2023-03-11T09:58:50;3.13;;;0.90;;
13487;SDS011;6816;48.506;9.050;2023-03-11T10:01:56;3.33;;;0.87;;
13487;SDS011;6816;48.506;9.050;2023-03-11T10:08:40;1.90;;;0.80;;
13487;SDS011;6816;48.506;9.050;2023-03-11T10:12:32;1.87;;;0.53;;
13487;SDS011;6816;48.506;9.050;2023-03-11T10:18:54;0.93;;;0.60;;
13487;SDS011;6816;48.506;9.050;2023-03-11T10:22:29;0.93;;;0.40;;
13487;SDS011;6816;48.506;9.050;2023-03-11T10:26:05;1.77;;;0.80;;
13487;SDS011;6816;48.506;9.050;2023-03-11T10:29:16;1.67;;;0.60;;
13487;SDS011;6816;48.506;9.050;2023-03-11T10:35:57;0.97;;;0.60;;
13487;SDS011;6816;48.506;9.050;2023-03-11T10:39:03;2.20;;;0.80;;
13487;SDS011;6816;48.506;9.050;2023-03-11T10:42:12;1.10;;;0.70;;
13487;SDS011;6816;48.506;9.050;2023-03-11T10:45:16;1.50;;;0.63;;
13487;SDS011;6816;48.506;9.050;2023-03-11T10:48:19;0.90;;;0.70;;
13487;SDS011;6816;48.506;9.050;2023-03-11T10:51:22;1.27;;;0.80;;
13487;SDS011;6816;48.506;9.050;2023-03-11T10:54:39;2.37;;;0.70;;
13487;SDS011;6816;48.506;9.050;2023-03-11T10:57:47;2.03;;;0.80;;
13487;SDS011;6816;48.506;9.050;2023-03-11T11:04:22;1.50;;;0.67;;
13487;SDS011;6816;48.506;9.050;2023-03-11T11:07:34;0.93;;;0.60;;
13487;SDS011;6816;48.506;9.050;2023-03-11T11:10:36;1.00;;;0.80;;
13487;SDS011;6816;48.506;9.050;2023-03-11T11:13:54;1.57;;;0.70;;
13487;SDS011;6816;48.506;9.050;2023-03-11T11:16:56;3.13;;;1.47;;
13487;SDS011;6816;48.506;9.050;2023-03-11T11:19:57;3.73;;;0.90;;
13487;SDS011;6816;48.506;9.050;2023-03-11T11:23:00;0.87;;;0.50;;
13487;SDS011;6816;48.506;9.050;2023-03-11T11:26:03;0.70;;;0.60;;
13487;SDS011;6816;48.506;9.050;2023-03-11T11:29:13;2.20;;;0.80;;
13487;SDS011;6816;48.506;9.050;2023-03-11T11:32:23;1.73;;;0.77;;
13487;SDS011;6816;48.506;9.050;2023-03-11T11:35:25;1.77;;;0.60;;
13487;SDS011;6816;48.506;9.050;2023-03-11T11:38:27;2.03;;;0.70;;
13487;SDS011;6816;48.506;9.050;2023-03-11T11:41:29;1.57;;;0.60;;
13487;SDS011;6816;48.506;9.050;2023-03-11T11:44:34;1.50;;;0.70;;
13487;SDS011;6816;48.506;9.050;2023-03-11T11:47:35;2.47;;;0.83;;
13487;SDS011;6816;48.506;9.050;2023-03-11T11:50:50;2.27;;;0.80;;
13487;SDS011;6816;48.506;9.050;2023-03-11T11:57:13;2.67;;;0.80;;
13487;SDS011;6816;48.506;9.050;2023-03-11T12:00:23;1.43;;;0.67;;
13487;SDS011;6816;48.506;9.050;2023-03-11T12:11:17;0.90;;;0.70;;
13487;SDS011;6816;48.506;9.050;2023-03-11T12:17:36;1.57;;;0.70;;
13487;SDS011;6816;48.506;9.050;2023-03-11T12:20:42;3.30;;;0.60;;
13487;SDS011;6816;48.506;9.050;2023-03-11T12:27:25;2.17;;;1.20;;
13487;SDS011;6816;48.506;9.050;2023-03-11T12:30:55;3.60;;;0.80;;
13487;SDS011;6816;48.506;9.050;2023-03-11T12:34:00;1.97;;;0.80;;
13487;SDS011;6816;48.506;9.050;2023-03-11T12:37:03;1.50;;;0.70;;
13487;SDS011;6816;48.506;9.050;2023-03-11T12:56:46;1.00;;;0.60;;
13487;SDS011;6816;48.506;9.050;2023-03-11T13:10:10;1.57;;;0.70;;
13487;SDS011;6816;48.506;9.050;2023-03-11T13:16:34;1.97;;;0.90;;
13487;SDS011;6816;48.506;9.050;2023-03-11T13:19:36;1.93;;;0.80;;
13487;SDS011;6816;48.506;9.050;2023-03-11T13:26:12;1.67;;;0.80;;
13487;SDS011;6816;48.506;9.050;2023-03-11T13:30:04;1.90;;;0.70;;
13487;SDS011;6816;48.506;9.050;2023-03-11T13:42:54;0.90;;;0.70;;
13487;SDS011;6816;48.506;9.050;2023-03-11T13:46:00;0.77;;;0.60;;
13487;SDS011;6816;48.506;9.050;2023-03-11T13:52:35;1.83;;;0.70;;
13487;SDS011;6816;48.506;9.050;2023-03-11T13:55:42;1.50;;;0.80;;
13487;SDS011;6816;48.506;9.050;2023-03-11T13:58:45;1.63;;;0.90;;
13487;SDS011;6816;48.506;9.050;2023-03-11T14:01:49;4.00;;;1.00;;
13487;SDS011;6816;48.506;9.050;2023-03-11T14:05:03;2.30;;;0.83;;
13487;SDS011;6816;48.506;9.050;2023-03-11T14:08:17;1.83;;;0.80;;
13487;SDS011;6816;48.506;9.050;2023-03-11T14:11:27;2.20;;;0.90;;
13487;SDS011;6816;48.506;9.050;2023-03-11T14:17:38;1.23;;;0.60;;
13487;SDS011;6816;48.506;9.050;2023-03-11T14:20:38;2.93;;;1.07;;
13487;SDS011;6816;48.506;9.050;2023-03-11T14:23:40;1.40;;;0.70;;
13487;SDS011;6816;48.506;9.050;2023-03-11T14:26:43;1.17;;;0.70;;
13487;SDS011;6816;48.506;9.050;2023-03-11T14:29:46;1.60;;;0.87;;
13487;SDS011;6816;48.506;9.050;2023-03-11T14:32:56;0.90;;;0.80;;
13487;SDS011;6816;48.506;9.050;2023-03-11T14:36:00;1.10;;;0.63;;
13487;SDS011;6816;48.506;9.050;2023-03-11T14:39:03;1.70;;;0.70;;
13487;SDS011;6816;48.506;9.050;2023-03-11T14:42:05;1.27;;;0.70;;
13487;SDS011;6816;48.506;9.050;2023-03-11T14:45:23;2.13;;;1.00;;
13487;SDS011;6816;48.506;9.050;2023-03-11T14:48:28;2.87;;;0.80;;
13487;SDS011;6816;48.506;9.050;2023-03-11T14:51:37;1.50;;;0.80;;
13487;SDS011;6816;48.506;9.050;2023-03-11T14:54:38;1.17;;;0.70;;
13487;SDS011;6816;48.506;9.050;2023-03-11T14:57:39;1.67;;;0.60;;
13487;SDS011;6816;48.506;9.050;2023-03-11T15:00:52;1.07;;;0.73;;
13487;SDS011;6816;48.506;9.050;2023-03-11T15:07:04;1.20;;;0.57;;
13487;SDS011;6816;48.506;9.050;2023-03-11T15:10:06;1.27;;;0.67;;
13487;SDS011;6816;48.506;9.050;2023-03-11T15:13:14;2.33;;;0.77;;
13487;SDS011;6816;48.506;9.050;2023-03-11T15:19:30;3.20;;;0.90;;
13487;SDS011;6816;48.506;9.050;2023-03-11T15:22:37;1.43;;;0.70;;
13487;SDS011;6816;48.506;9.050;2023-03-11T15:25:39;0.80;;;0.53;;
13487;SDS011;6816;48.506;9.050;2023-03-11T15:28:56;1.70;;;0.70;;
13487;SDS011;6816;48.506;9.050;2023-03-11T15:32:22;0.73;;;0.63;;
13487;SDS011;6816;48.506;9.050;2023-03-11T15:35:44;1.13;;;0.70;;
13487;SDS011;6816;48.506;9.050;2023-03-11T15:38:47;1.23;;;0.60;;
13487;SDS011;6816;48.506;9.050;2023-03-11T15:42:24;2.67;;;0.70;;
13487;SDS011;6816;48.506;9.050;2023-03-11T15:45:25;1.57;;;0.90;;
13487;SDS011;6816;48.506;9.050;2023-03-11T15:48:26;1.60;;;0.90;;
13487;SDS011;6816;48.506;9.050;2023-03-11T15:51:28;1.33;;;0.70;;
13487;SDS011;6816;48.506;9.050;2023-03-11T15:54:29;1.07;;;0.53;;
13487;SDS011;6816;48.506;9.050;2023-03-11T15:57:30;1.00;;;0.70;;
13487;SDS011;6816;48.506;9.050;2023-03-11T16:00:30;2.93;;;0.70;;
13487;SDS011;6816;48.506;9.050;2023-03-11T16:03:31;2.77;;;0.70;;
13487;SDS011;6816;48.506;9.050;2023-03-11T16:06:32;1.60;;;0.60;;
13487;SDS011;6816;48.506;9.050;2023-03-11T16:09:32;1.00;;;0.70;;
13487;SDS011;6816;48.506;9.050;2023-03-11T16:12:33;2.90;;;0.70;;
13487;SDS011;6816;48.506;9.050;2023-03-11T16:15:35;2.30;;;0.90;;
13487;SDS011;6816;48.506;9.050;2023-03-11T16:18:36;1.67;;;0.87;;
13487;SDS011;6816;48.506;9.050;2023-03-11T16:21:44;1.23;;;0.70;;
13487;SDS011;6816;48.506;9.050;2023-03-11T16:24:49;2.10;;;0.90;;
13487;SDS011;6816;48.506;9.050;2023-03-11T16:27:52;1.00;;;0.63;;
13487;SDS011;6816;48.506;9.050;2023-03-11T16:30:54;1.97;;;0.80;;
13487;SDS011;6816;48.506;9.050;2023-03-11T16:33:54;1.13;;;0.60;;
13487;SDS011;6816;48.506;9.050;2023-03-11T16:36:55;1.67;;;0.90;;
13487;SDS011;6816;48.506;9.050;2023-03-11T16:39:56;1.13;;;0.63;;
13487;SDS011;6816;48.506;9.050;2023-03-11T16:43:01;1.40;;;0.90;;
13487;SDS011;6816;48.506;9.050;2023-03-11T16:46:04;2.10;;;0.90;;
13487;SDS011;6816;48.506;9.050;2023-03-11T16:49:05;1.97;;;0.90;;
13487;SDS011;6816;48.506;9.050;2023-03-11T16:52:05;2.43;;;0.93;;
13487;SDS011;6816;48.506;9.050;2023-03-11T16:55:06;1.77;;;0.80;;
13487;SDS011;6816;48.506;9.050;2023-03-11T16:58:07;1.57;;;0.80;;
13487;SDS011;6816;48.506;9.050;2023-03-11T17:01:10;1.83;;;0.90;;
13487;SDS011;6816;48.506;9.050;2023-03-11T17:04:21;1.60;;;1.43;;
13487;SDS011;6816;48.506;9.050;2023-03-11T17:07:22;1.83;;;1.03;;
13487;SDS011;6816;48.506;9.050;2023-03-11T17:10:23;2.47;;;1.20;;
13487;SDS011;6816;48.506;9.050;2023-03-11T17:13:23;3.27;;;1.50;;
13487;SDS011;6816;48.506;9.050;2023-03-11T17:16:24;3.23;;;1.50;;
13487;SDS011;6816;48.506;9.050;2023-03-11T17:19:25;4.03;;;1.43;;
13487;SDS011;6816;48.506;9.050;2023-03-11T17:22:25;2.33;;;1.10;;
13487;SDS011;6816;48.506;9.050;2023-03-11T17:25:26;2.27;;;1.27;;
13487;SDS011;6816;48.506;9.050;2023-03-11T17:28:27;2.10;;;0.97;;
13487;SDS011;6816;48.506;9.050;2023-03-11T17:31:27;3.23;;;1.10;;
13487;SDS011;6816;48.506;9.050;2023-03-11T17:34:28;1.87;;;1.00;;
13487;SDS011;6816;48.506;9.050;2023-03-11T17:37:29;2.83;;;1.13;;
13487;SDS011;6816;48.506;9.050;2023-03-11T17:40:29;2.30;;;1.10;;
13487;SDS011;6816;48.506;9.050;2023-03-11T17:43:31;3.63;;;1.10;;
13487;SDS011;6816;48.506;9.050;2023-03-11T17:46:32;1.77;;;0.80;;
13487;SDS011;6816;48.506;9.050;2023-03-11T17:49:35;2.07;;;1.00;;
13487;SDS011;6816;48.506;9.050;2023-03-11T17:52:35;2.80;;;1.10;;
13487;SDS011;6816;48.506;9.050;2023-03-11T17:55:37;1.83;;;0.77;;
13487;SDS011;6816;48.506;9.050;2023-03-11T17:58:39;1.47;;;0.97;;
13487;SDS011;6816;48.506;9.050;2023-03-11T18:01:40;2.30;;;0.93;;
13487;SDS011;6816;48.506;9.050;2023-03-11T18:04:40;2.80;;;1.10;;
13487;SDS011;6816;48.506;9.050;2023-03-11T18:07:44;2.10;;;1.00;;
13487;SDS011;6816;48.506;9.050;2023-03-11T18:10:49;4.60;;;1.17;;
13487;SDS011;6816;48.506;9.050;2023-03-11T18:13:50;2.87;;;1.23;;
13487;SDS011;6816;48.506;9.050;2023-03-11T18:16:51;1.40;;;1.00;;
13487;SDS011;6816;48.506;9.050;2023-03-11T18:19:52;2.93;;;0.93;;
13487;SDS011;6816;48.506;9.050;2023-03-11T18:22:52;3.10;;;1.03;;
13487;SDS011;6816;48.506;9.050;2023-03-11T18:25:54;1.30;;;0.90;;
13487;SDS011;6816;48.506;9.050;2023-03-11T18:28:56;2.03;;;1.13;;
13487;SDS011;6816;48.506;9.050;2023-03-11T18:31:58;2.70;;;1.50;;
13487;SDS011;6816;48.506;9.050;2023-03-11T18:34:59;2.37;;;1.17;;
13487;SDS011;6816;48.506;9.050;2023-03-11T18:37:59;1.30;;;1.10;;
13487;SDS011;6816;48.506;9.050;2023-03-11T18:41:00;2.57;;;1.13;;
13487;SDS011;6816;48.506;9.050;2023-03-11T18:44:00;2.40;;;1.20;;
13487;SDS011;6816;48.506;9.050;2023-03-11T18:47:01;4.77;;;1.20;;
13487;SDS011;6816;48.506;9.050;2023-03-11T18:50:02;1.57;;;1.10;;
13487;SDS011;6816;48.506;9.050;2023-03-11T18:53:03;2.63;;;1.07;;
13487;SDS011;6816;48.506;9.050;2023-03-11T18:56:05;3.27;;;0.87;;
13487;SDS011;6816;48.506;9.050;2023-03-11T18:59:09;1.60;;;0.90;;
13487;SDS011;6816;48.506;9.050;2023-03-11T19:02:11;2.37;;;1.30;;
13487;SDS011;6816;48.506;9.050;2023-03-11T19:05:11;2.73;;;1.40;;
13487;SDS011;6816;48.506;9.050;2023-03-11T19:08:12;3.60;;;1.10;;
13487;SDS011;6816;48.506;9.050;2023-03-11T19:11:17;6.03;;;1.33;;
13487;SDS011;6816;48.506;9.050;2023-03-11T19:14:19;2.93;;;1.30;;
13487;SDS011;6816;48.506;9.050;2023-03-11T19:17:20;1.70;;;1.10;;
13487;SDS011;6816;48.506;9.050;2023-03-11T19:20:20;2.43;;;1.30;;
13487;SDS011;6816;48.506;9.050;2023-03-11T19:23:22;3.50;;;1.10;;
13487;SDS011;6816;48.506;9.050;2023-03-11T19:26:23;3.93;;;1.90;;
13487;SDS011;6816;48.506;9.050;2023-03-11T19:29:23;4.90;;;1.90;;
13487;SDS011;6816;48.506;9.050;2023-03-11T19:32:25;3.47;;;1.73;;
13487;SDS011;6816;48.506;9.050;2023-03-11T19:35:26;5.77;;;2.80;;
13487;SDS011;6816;48.506;9.050;2023-03-11T19:38:27;5.63;;;2.80;;
13487;SDS011;6816;48.506;9.050;2023-03-11T19:41:28;8.17;;;2.93;;
13487;SDS011;6816;48.506;9.050;2023-03-11T19:44:29;10.10;;;3.50;;
13487;SDS011;6816;48.506;9.050;2023-03-11T19:47:30;11.40;;;3.87;;
13487;SDS011;6816;48.506;9.050;2023-03-11T19:50:30;11.53;;;4.63;;
13487;SDS011;6816;48.506;9.050;2023-03-11T19:53:32;12.60;;;5.40;;
13487;SDS011;6816;48.506;9.050;2023-03-11T19:56:35;10.33;;;3.77;;
13487;SDS011;6816;48.506;9.050;2023-03-11T19:59:35;8.50;;;4.17;;
13487;SDS011;6816;48.506;9.050;2023-03-11T20:02:36;8.97;;;3.70;;
13487;SDS011;6816;48.506;9.050;2023-03-11T20:05:37;6.33;;;2.90;;
13487;SDS011;6816;48.506;9.050;2023-03-11T20:08:39;4.63;;;2.40;;
13487;SDS011;6816;48.506;9.050;2023-03-11T20:11:41;4.53;;;2.00;;
13487;SDS011;6816;48.506;9.050;2023-03-11T20:14:41;3.80;;;1.80;;
13487;SDS011;6816;48.506;9.050;2023-03-11T20:17:42;2.07;;;1.40;;
13487;SDS011;6816;48.506;9.050;2023-03-11T20:20:43;5.37;;;2.23;;